Portada
METAR-TAF:

METAR-TAF

Aeropuertos :

Aeropuerto Internacional del Caribe Santiago Mariño

Isla de Margarita, Venezuela

latitud: 10-55N, longitud: 063-59W, altitud: 23 m

METAR: falta

Hora: 23:28 (03:28 UTC)

Pronóstico

El informe se hizo hace 5 horas y 28 minutos, a las 22:00 UTC
Pronóstico válido del 25 a las 00 UTC al 26 a las 00 UTC
Viento 12 kt del noreste
Visibilidad 10 km o más
Escasas nubes a una altura de 2000 ft
Evolucionando progresivamente
del 25 a las 00 UTC al 25 a las 04 UTC
Viento 14 kt del noreste

TAF: SVMG 242200Z 2500/2600 05012KT 9999 FEW020 TX33/18Z TN25/08Z BECMG 2500/2504 05014KT

Observaciones y pronósticos meteorológicos de más de 4000 aeropuertos (mensajes METAR y TAF).

Los puntos amarillos y rojos representan las estaciones disponibles.

Ponga el ratón en el punto deseado para ver el nombre de la estación.

Haga clic para ver las observaciones y los pronósticos meteorológicos.

Para cambiar el mapa : haga clic en los botones verdes con una cruz de color negro para hacer un zoom, en el botón verde con un guión para alejar o en las flechas verdes para mapas adyacentes.


METAR-TAF: